Time;durP1;ratioP1;P1;durP2;ratioP2;P2;SDS_P1;SDS_P2;PMS_P1;PMS_P2;Temp;Humidity;BMP_temperature;BMP_pressure;BME280_temperature;BME280_humidity;BME280_pressure;Samples;Min_cycle;Max_cycle;Signal;HPM_P1;HPM_P2
2021/01/23 00:01:18;;;;;;;22.23;14.57;;;;;;;10.72;63.53;101972.28;5010963;28;20044;-65
2021/01/23 00:03:43;;;;;;;13.40;9.98;;;;;;;10.71;63.64;101965.19;5011858;28;20428;-64
2021/01/23 00:06:09;;;;;;;13.32;9.30;;;;;;;10.70;63.61;101968.69;5012095;28;20041;-64
2021/01/23 00:08:34;;;;;;;10.52;6.93;;;;;;;10.71;63.38;101970.47;5011551;28;20475;-64
2021/01/23 00:10:59;;;;;;;10.93;8.27;;;;;;;10.74;63.55;101953.00;5012625;28;20042;-64
2021/01/23 00:13:25;;;;;;;8.88;4.93;;;;;;;10.77;62.93;101952.19;5010757;28;20050;-64
2021/01/23 00:15:50;;;;;;;6.57;3.83;;;;;;;10.81;63.55;101951.47;5012522;28;20034;-64
2021/01/23 00:18:16;;;;;;;7.38;3.25;;;;;;;10.84;63.59;101946.28;5012277;28;20045;-65
2021/01/23 00:20:41;;;;;;;3.88;2.60;;;;;;;10.91;62.87;101944.75;5012115;28;20048;-64
2021/01/23 00:23:06;;;;;;;7.65;2.65;;;;;;;10.96;63.11;101936.13;5010792;28;20498;-64
2021/01/23 00:25:32;;;;;;;4.50;2.40;;;;;;;11.04;63.04;101944.28;5011311;28;20407;-64
2021/01/23 00:27:57;;;;;;;6.47;2.80;;;;;;;11.09;63.52;101938.31;5012155;28;20030;-64
2021/01/23 00:30:22;;;;;;;2.53;1.77;;;;;;;11.13;63.13;101934.94;5011981;28;20458;-64
2021/01/23 00:32:48;;;;;;;3.50;2.28;;;;;;;11.21;63.15;101939.56;5011813;28;20034;-64
2021/01/23 00:35:13;;;;;;;4.35;2.25;;;;;;;11.24;63.02;101944.94;5011865;28;20060;-65
2021/01/23 00:37:38;;;;;;;5.93;2.17;;;;;;;11.26;62.92;101941.50;5011175;28;20038;-64
2021/01/23 00:40:04;;;;;;;3.22;2.45;;;;;;;11.27;63.08;101937.13;5009655;28;20042;-64
2021/01/23 00:42:29;;;;;;;2.97;2.10;;;;;;;11.25;63.14;101937.06;5011149;28;20046;-64
2021/01/23 00:44:54;;;;;;;2.20;2.00;;;;;;;11.23;63.21;101938.75;5011836;28;20038;-64
2021/01/23 00:47:20;;;;;;;3.40;2.30;;;;;;;11.21;63.73;101935.19;5011743;28;20398;-64
2021/01/23 00:49:45;;;;;;;8.00;2.33;;;;;;;11.20;63.51;101933.38;5011685;28;20042;-64
2021/01/23 00:52:11;;;;;;;3.13;2.08;;;;;;;11.19;63.34;101934.22;5001516;28;20116;-64
2021/01/23 00:54:36;;;;;;;3.05;1.83;;;;;;;11.21;63.93;101929.91;5007671;28;20037;-64
2021/01/23 00:57:01;;;;;;;7.10;1.92;;;;;;;11.24;63.30;101929.97;5031775;28;20051;-65
2021/01/23 00:59:27;;;;;;;2.80;1.92;;;;;;;11.26;64.08;101916.81;5027824;28;20403;-64
2021/01/23 01:01:52;;;;;;;5.60;2.58;;;;;;;11.28;63.51;101918.69;5009849;28;20042;-64
2021/01/23 01:04:18;;;;;;;3.30;2.25;;;;;;;11.28;63.38;101909.84;5011036;28;20380;-64
2021/01/23 01:06:43;;;;;;;7.65;2.53;;;;;;;11.27;64.20;101908.03;5009676;28;20454;-64
2021/01/23 01:09:08;;;;;;;4.78;2.22;;;;;;;11.27;63.41;101908.03;5011422;28;20042;-65
2021/01/23 01:11:34;;;;;;;7.13;2.65;;;;;;;11.28;63.87;101913.38;5011307;28;20042;-64
2021/01/23 01:13:59;;;;;;;3.22;1.67;;;;;;;11.31;63.89;101905.53;5011256;28;20077;-64
2021/01/23 01:16:25;;;;;;;6.45;1.95;;;;;;;11.33;63.64;101901.19;5011234;28;20050;-64
2021/01/23 01:18:50;;;;;;;3.47;1.38;;;;;;;11.36;63.49;101903.91;5011329;28;20091;-64
2021/01/23 01:21:15;;;;;;;2.78;1.55;;;;;;;11.40;63.98;101904.94;5010604;28;20041;-64
2021/01/23 01:23:42;;;;;;;8.40;1.50;;;;;;;11.43;64.35;101897.97;5023815;28;20045;-64
2021/01/23 01:26:07;;;;;;;2.45;1.42;;;;;;;11.46;64.47;101892.78;5030954;28;20037;-65
2021/01/23 01:28:33;;;;;;;1.13;1.02;;;;;;;11.49;64.43;101891.97;5030919;28;20390;-64
2021/01/23 01:30:58;;;;;;;1.95;1.20;;;;;;;11.55;64.08;101892.19;5030585;28;20038;-64
2021/01/23 01:33:23;;;;;;;7.07;1.58;;;;;;;11.58;64.42;101892.25;5030118;28;20041;-64
2021/01/23 01:35:49;;;;;;;4.38;1.30;;;;;;;11.61;64.42;101895.00;5030743;28;20065;-64
2021/01/23 01:38:14;;;;;;;4.43;1.63;;;;;;;11.64;63.88;101891.53;5030031;28;20112;-64
2021/01/23 01:40:39;;;;;;;3.17;1.23;;;;;;;11.65;63.59;101888.94;5030229;28;20394;-64
2021/01/23 01:43:05;;;;;;;1.45;1.10;;;;;;;11.67;63.78;101897.81;5030588;28;20048;-64
2021/01/23 01:45:30;;;;;;;2.38;1.40;;;;;;;11.68;64.14;101896.09;5030241;28;20045;-64
2021/01/23 01:47:55;;;;;;;3.53;1.35;;;;;;;11.65;64.37;101896.88;5030026;28;20521;-65
2021/01/23 01:50:21;;;;;;;3.55;1.02;;;;;;;11.62;63.57;101903.84;5028104;28;20204;-64
2021/01/23 01:52:46;;;;;;;3.40;1.38;;;;;;;11.60;63.79;101901.13;5030528;28;20053;-64
2021/01/23 01:55:12;;;;;;;5.63;1.40;;;;;;;11.61;64.47;101904.69;5030123;28;20041;-64
2021/01/23 01:57:37;;;;;;;4.40;1.58;;;;;;;11.59;63.52;101902.00;5030327;28;20045;-64
2021/01/23 02:00:02;;;;;;;2.88;1.48;;;;;;;11.58;64.44;101902.84;5032892;28;20473;-64
2021/01/23 02:02:28;;;;;;;1.80;1.23;;;;;;;11.55;64.60;101900.13;5027217;28;20042;-65
2021/01/23 02:04:53;;;;;;;3.75;1.38;;;;;;;11.53;64.23;101902.72;5029209;28;20038;-64
2021/01/23 02:07:19;;;;;;;3.70;0.90;;;;;;;11.55;64.65;101900.13;5030028;28;20048;-64
2021/01/23 02:09:44;;;;;;;6.82;1.52;;;;;;;11.59;63.97;101896.69;5037797;28;20498;-64
2021/01/23 02:12:09;;;;;;;1.38;0.85;;;;;;;11.61;64.19;101896.75;5029884;28;20036;-64
2021/01/23 02:14:35;;;;;;;3.83;1.13;;;;;;;11.62;63.78;101898.56;5029168;28;20041;-64
2021/01/23 02:17:00;;;;;;;1.92;0.95;;;;;;;11.63;63.87;101897.66;5029607;28;20137;-64
2021/01/23 02:19:25;;;;;;;3.28;1.38;;;;;;;11.65;63.87;101894.22;5029713;28;20053;-64
2021/01/23 02:21:51;;;;;;;1.70;0.90;;;;;;;11.66;64.14;101893.38;5030464;28;20148;-64
2021/01/23 02:24:16;;;;;;;2.85;0.90;;;;;;;11.67;64.71;101897.81;5029809;28;20053;-64
2021/01/23 02:26:42;;;;;;;6.20;1.05;;;;;;;11.67;63.97;101894.28;5030299;28;20037;-64
2021/01/23 02:29:07;;;;;;;4.18;1.20;;;;;;;11.66;64.28;101893.38;5027855;28;20046;-64
2021/01/23 02:31:32;;;;;;;8.75;1.23;;;;;;;11.65;63.96;101893.34;5030178;28;20437;-64
2021/01/23 02:33:58;;;;;;;1.63;1.35;;;;;;;11.65;63.90;101890.69;5030284;28;20124;-65
2021/01/23 02:36:23;;;;;;;5.95;1.10;;;;;;;11.64;64.68;101895.06;5029587;28;20049;-64
2021/01/23 02:38:48;;;;;;;4.55;1.20;;;;;;;11.63;64.77;101892.38;5030272;28;20037;-65
2021/01/23 02:41:14;;;;;;;8.82;1.50;;;;;;;11.62;64.39;101886.19;5029805;28;20042;-65
2021/01/23 02:43:39;;;;;;;1.38;1.00;;;;;;;11.62;63.94;101882.69;5036745;28;20038;-65
2021/01/23 02:46:04;;;;;;;3.08;1.20;;;;;;;11.61;64.67;101870.31;5025575;28;20037;-64
2021/01/23 02:48:30;;;;;;;2.85;1.00;;;;;;;11.60;64.80;101869.41;5010063;28;20071;-65
2021/01/23 02:50:55;;;;;;;3.40;1.05;;;;;;;11.61;64.71;101870.31;5010388;28;20030;-64
2021/01/23 02:53:20;;;;;;;3.03;1.20;;;;;;;11.63;64.33;101858.91;5043273;28;20049;-65
2021/01/23 02:55:46;;;;;;;5.50;1.35;;;;;;;11.64;64.37;101867.72;5020133;28;20080;-64
2021/01/23 02:58:11;;;;;;;3.03;1.10;;;;;;;11.63;64.69;101861.53;5018914;28;20100;-64
2021/01/23 03:00:36;;;;;;;5.10;2.17;;;;;;;11.65;64.79;101858.94;5029865;28;20449;-64
2021/01/23 03:03:02;;;;;;;1.95;1.00;;;;;;;11.65;64.83;101851.00;5048032;28;20053;-64
2021/01/23 03:05:27;;;;;;;2.90;1.00;;;;;;;11.65;64.50;101843.06;5032900;28;20037;-64
2021/01/23 03:07:53;;;;;;;3.17;1.13;;;;;;;11.64;64.47;101833.34;5033904;28;20671;-64
2021/01/23 03:10:18;;;;;;;2.00;1.00;;;;;;;11.64;64.17;101839.53;5033494;28;20057;-64
2021/01/23 03:12:43;;;;;;;2.10;1.00;;;;;;;11.64;64.02;101836.88;5033765;28;20548;-64
2021/01/23 03:15:09;;;;;;;1.52;0.80;;;;;;;11.63;64.69;101831.53;5033369;28;20033;-64
2021/01/23 03:17:34;;;;;;;3.83;0.88;;;;;;;11.59;64.37;101834.13;5033693;28;20038;-64
2021/01/23 03:19:59;;;;;;;1.38;0.70;;;;;;;11.59;64.38;101831.47;5018039;28;20495;-64
2021/01/23 03:22:25;;;;;;;2.35;0.98;;;;;;;11.58;64.05;101829.69;5013473;28;20038;-64
2021/01/23 03:24:50;;;;;;;4.10;1.20;;;;;;;11.56;64.58;101828.72;5016165;28;20169;-64
2021/01/23 03:27:15;;;;;;;2.47;1.00;;;;;;;11.55;64.09;101832.22;5013375;28;20049;-64
2021/01/23 03:29:41;;;;;;;2.95;1.15;;;;;;;11.57;64.89;101832.28;5013696;28;20267;-64
2021/01/23 03:32:06;;;;;;;5.18;1.20;;;;;;;11.59;64.57;101826.19;5013206;28;20153;-64
2021/01/23 03:34:31;;;;;;;3.65;1.08;;;;;;;11.64;64.61;101836.00;5040202;28;20041;-64
2021/01/23 03:36:57;;;;;;;5.03;1.00;;;;;;;11.67;64.26;101830.81;5033242;28;20037;-64
2021/01/23 03:39:22;;;;;;;7.38;0.90;;;;;;;11.69;64.69;101829.97;5032855;28;20614;-64
2021/01/23 03:41:47;;;;;;;2.78;0.85;;;;;;;11.70;64.22;101830.88;5033026;28;20040;-64
2021/01/23 03:44:13;;;;;;;2.92;0.82;;;;;;;11.69;64.41;101837.00;5032757;28;20029;-65
2021/01/23 03:46:38;;;;;;;2.88;0.90;;;;;;;11.67;64.97;101836.09;5033092;28;20800;-64
2021/01/23 03:49:03;;;;;;;2.85;0.82;;;;;;;11.67;64.46;101844.03;5033112;28;20037;-64
2021/01/23 03:51:29;;;;;;;6.65;0.80;;;;;;;11.68;64.10;101843.19;5032388;28;20041;-64
2021/01/23 03:53:54;;;;;;;2.42;1.08;;;;;;;11.67;64.51;101842.28;5032607;28;20053;-65
2021/01/23 03:56:19;;;;;;;2.80;0.90;;;;;;;11.70;64.46;101852.94;5031087;28;20068;-65
2021/01/23 03:58:45;;;;;;;4.82;1.00;;;;;;;11.71;64.28;101851.19;5048348;28;20033;-64
2021/01/23 04:01:10;;;;;;;1.80;0.90;;;;;;;11.70;64.38;101850.28;5032456;28;20402;-65
2021/01/23 04:03:35;;;;;;;2.50;1.10;;;;;;;11.70;64.97;101849.38;5032537;28;20041;-64
2021/01/23 04:06:01;;;;;;;7.93;1.30;;;;;;;11.69;64.92;101840.56;5032596;28;20541;-64
2021/01/23 04:08:26;;;;;;;2.80;1.25;;;;;;;11.70;64.41;101844.09;5032377;28;20038;-64
2021/01/23 04:10:52;;;;;;;4.63;0.90;;;;;;;11.70;64.93;101839.72;5030761;28;20045;-64
2021/01/23 04:13:17;;;;;;;7.65;1.00;;;;;;;11.71;64.02;101844.16;5031033;28;20030;-64
2021/01/23 04:15:42;;;;;;;1.33;1.10;;;;;;;11.72;64.77;101847.69;5032812;28;20029;-64
2021/01/23 04:18:08;;;;;;;2.65;1.10;;;;;;;11.71;65.04;101854.72;5032089;28;20038;-64
2021/01/23 04:20:33;;;;;;;4.72;1.10;;;;;;;11.72;64.76;101847.69;5047810;28;20044;-64
2021/01/23 04:22:58;;;;;;;1.70;1.00;;;;;;;11.73;64.98;101853.03;5046028;28;20072;-64
2021/01/23 04:25:24;;;;;;;3.90;1.23;;;;;;;11.73;64.21;101852.13;5032037;28;20544;-64
2021/01/23 04:27:49;;;;;;;5.35;1.40;;;;;;;11.74;64.04;101860.16;5032397;28;20031;-64
2021/01/23 04:30:14;;;;;;;3.88;1.05;;;;;;;11.74;64.57;101853.97;5031999;28;20041;-64
2021/01/23 04:32:40;;;;;;;1.85;1.42;;;;;;;11.75;64.12;101856.63;5032386;28;20064;-64
2021/01/23 04:35:05;;;;;;;2.95;1.52;;;;;;;11.76;65.07;101855.78;5032380;28;20091;-64
2021/01/23 04:37:31;;;;;;;4.75;1.83;;;;;;;11.77;64.39;101857.59;5045303;28;20038;-64
2021/01/23 04:39:56;;;;;;;2.95;1.38;;;;;;;11.77;64.48;101854.94;5032113;28;20037;-64
2021/01/23 04:42:21;;;;;;;1.88;1.23;;;;;;;11.79;64.84;101852.34;5031695;28;20103;-64
2021/01/23 04:44:47;;;;;;;2.95;1.70;;;;;;;11.81;64.53;101856.84;5030889;28;20087;-64
2021/01/23 04:47:12;;;;;;;2.83;1.60;;;;;;;11.85;64.43;101864.00;5031367;28;20052;-64
2021/01/23 04:49:37;;;;;;;2.92;1.65;;;;;;;11.85;64.54;101863.09;5031990;28;20040;-64
2021/01/23 04:52:03;;;;;;;2.97;1.75;;;;;;;11.87;64.17;101856.09;5031729;28;20479;-64
2021/01/23 04:54:28;;;;;;;4.68;1.50;;;;;;;11.87;64.33;101859.66;5030875;28;20050;-64
2021/01/23 04:56:54;;;;;;;2.95;1.42;;;;;;;11.85;64.68;101858.69;5031234;28;20053;-65
2021/01/23 04:59:19;;;;;;;3.00;1.63;;;;;;;11.82;64.25;101855.94;5046687;28;20034;-65
2021/01/23 05:01:44;;;;;;;3.10;1.30;;;;;;;11.79;64.89;101850.59;5031703;28;20038;-64
2021/01/23 05:04:10;;;;;;;3.50;2.30;;;;;;;11.79;64.42;101857.63;5016892;28;20038;-64
2021/01/23 05:06:35;;;;;;;9.27;5.50;;;;;;;11.76;64.52;101845.19;5027046;28;20161;-64
2021/01/23 05:09:00;;;;;;;16.73;9.48;;;;;;;11.78;64.56;101850.53;5011916;28;20028;-64
2021/01/23 05:11:26;;;;;;;18.30;10.95;;;;;;;11.79;64.89;101845.31;5011430;28;20041;-65
2021/01/23 05:13:51;;;;;;;15.23;8.48;;;;;;;11.79;64.60;101847.94;5027033;28;20034;-64
2021/01/23 05:16:16;;;;;;;5.20;3.38;;;;;;;11.82;65.29;101853.31;5011270;28;20030;-64
2021/01/23 05:18:42;;;;;;;14.23;9.23;;;;;;;11.86;65.23;101854.31;5038478;28;20053;-64
2021/01/23 05:21:07;;;;;;;6.82;5.22;;;;;;;11.88;64.56;101850.81;5030881;28;20034;-64
2021/01/23 05:23:33;;;;;;;10.40;7.25;;;;;;;11.89;64.68;101849.97;5031330;28;20037;-64
2021/01/23 05:25:58;;;;;;;13.20;10.40;;;;;;;11.89;65.45;101855.28;5031070;28;20037;-64
2021/01/23 05:28:23;;;;;;;13.27;8.18;;;;;;;11.90;65.10;101843.84;5046181;28;20514;-64
2021/01/23 05:30:50;;;;;;;9.32;7.15;;;;;;;11.92;65.30;101850.06;5029410;28;20380;-64
2021/01/23 05:33:16;;;;;;;11.75;8.45;;;;;;;11.97;65.06;101840.50;5046059;28;20057;-64
2021/01/23 05:35:41;;;;;;;20.45;12.85;;;;;;;12.02;65.10;101837.06;5031039;28;20065;-64
2021/01/23 05:38:06;;;;;;;26.70;16.90;;;;;;;12.04;64.92;101836.28;5030548;28;20083;-64
2021/01/23 05:40:32;;;;;;;15.32;12.23;;;;;;;12.08;65.07;101840.78;5030888;28;20034;-64
2021/01/23 05:42:57;;;;;;;17.35;10.57;;;;;;;12.13;65.09;101827.69;5031027;28;20571;-64
2021/01/23 05:45:22;;;;;;;18.27;11.60;;;;;;;12.16;64.43;101825.13;5030253;28;20662;-64
2021/01/23 05:47:48;;;;;;;73.07;60.60;;;;;;;12.22;64.80;101825.28;5030700;28;20175;-64
2021/01/23 05:50:13;;;;;;;182.05;159.50;;;;;;;12.31;64.37;101818.47;5030340;28;20041;-64
2021/01/23 05:52:39;;;;;;;146.73;130.38;;;;;;;12.44;64.53;101827.63;5030677;28;20042;-64
2021/01/23 05:55:04;;;;;;;94.38;83.80;;;;;;;12.59;65.19;101824.47;5030649;28;20053;-64
2021/01/23 05:57:29;;;;;;;75.78;67.68;;;;;;;12.77;64.91;101823.16;5030172;28;20125;-64
2021/01/23 05:59:55;;;;;;;74.57;66.88;;;;;;;12.94;64.88;101820.88;5042422;28;20038;-64
2021/01/23 06:02:20;;;;;;;65.30;58.28;;;;;;;13.10;64.28;101819.47;5029998;28;20084;-64
2021/01/23 06:04:45;;;;;;;52.30;46.63;;;;;;;13.23;64.62;101807.41;5030518;28;20061;-64
2021/01/23 06:07:11;;;;;;;46.15;38.20;;;;;;;13.31;63.96;101804.06;5029976;28;20049;-64
2021/01/23 06:09:36;;;;;;;43.03;38.60;;;;;;;13.37;64.11;101806.84;5028933;28;20403;-65
2021/01/23 06:12:02;;;;;;;46.90;41.95;;;;;;;13.43;64.04;101804.31;5025896;28;20038;-65
2021/01/23 06:14:27;;;;;;;67.25;60.17;;;;;;;13.48;63.61;101815.91;5021700;28;20572;-64
2021/01/23 06:16:52;;;;;;;63.75;56.63;;;;;;;13.53;64.04;101818.66;5030350;28;20040;-64
2021/01/23 06:19:18;;;;;;;47.08;42.10;;;;;;;13.55;64.00;101820.47;5028510;28;20445;-65
2021/01/23 06:21:43;;;;;;;47.78;42.55;;;;;;;13.57;63.92;101817.88;5029955;28;20048;-65
2021/01/23 06:24:08;;;;;;;57.33;50.42;;;;;;;13.64;63.80;101824.19;5030063;28;20042;-65
2021/01/23 06:26:34;;;;;;;54.30;46.10;;;;;;;13.69;63.96;101825.19;5045652;28;20037;-64
2021/01/23 06:28:59;;;;;;;47.50;42.15;;;;;;;13.77;63.86;101824.47;5030156;28;20123;-64
2021/01/23 06:31:24;;;;;;;37.03;32.97;;;;;;;13.86;63.65;101821.06;5029030;28;20046;-64
2021/01/23 06:33:50;;;;;;;28.13;22.85;;;;;;;13.95;63.55;101830.13;5030042;28;20402;-65
2021/01/23 06:36:15;;;;;;;16.95;15.15;;;;;;;14.02;63.37;101828.47;5029162;28;20128;-65
2021/01/23 06:38:40;;;;;;;19.92;15.20;;;;;;;14.08;63.44;101839.22;5030129;28;20371;-65
2021/01/23 06:41:06;;;;;;;25.95;18.05;;;;;;;14.12;63.35;101832.19;5030287;28;20037;-64
2021/01/23 06:43:31;;;;;;;23.90;19.05;;;;;;;14.14;63.48;101831.34;5029580;28;20044;-62
2021/01/23 06:45:57;;;;;;;37.78;27.33;;;;;;;14.18;63.27;101835.84;5021358;28;20137;-65
2021/01/23 06:48:22;;;;;;;67.00;56.83;;;;;;;14.24;63.06;101837.75;5025004;28;20088;-65
2021/01/23 06:50:47;;;;;;;90.93;80.90;;;;;;;14.29;63.22;101842.25;5025342;28;20118;-65
2021/01/23 06:53:13;;;;;;;109.90;98.20;;;;;;;14.34;63.39;101845.88;5009790;28;20442;-65
2021/01/23 06:55:38;;;;;;;107.53;96.13;;;;;;;14.38;63.27;101845.97;5010200;28;20050;-65
2021/01/23 06:58:03;;;;;;;106.80;95.68;;;;;;;14.39;63.34;101838.03;5010298;28;20072;-65
2021/01/23 07:00:29;;;;;;;109.13;95.82;;;;;;;14.42;63.00;101842.50;5016430;28;20390;-64
2021/01/23 07:02:54;;;;;;;106.38;94.70;;;;;;;14.48;63.01;101837.31;5040029;28;20080;-64
2021/01/23 07:05:19;;;;;;;100.20;89.32;;;;;;;14.56;62.76;101833.00;5044677;28;20029;-65
2021/01/23 07:07:45;;;;;;;86.53;75.70;;;;;;;14.73;62.94;101828.84;5029686;28;20034;-65
2021/01/23 07:10:10;;;;;;;58.35;49.88;;;;;;;15.01;62.58;101838.16;5029140;28;20120;-66
2021/01/23 07:12:35;;;;;;;52.65;41.72;;;;;;;15.25;62.33;101829.63;5029475;28;20037;-66
2021/01/23 07:15:01;;;;;;;55.45;46.38;;;;;;;15.42;62.31;101826.31;5029483;28;20037;-67
2021/01/23 07:17:26;;;;;;;58.67;49.63;;;;;;;15.57;62.15;101830.06;5042114;28;20046;-65
2021/01/23 07:19:51;;;;;;;73.93;59.90;;;;;;;15.67;61.87;101816.91;5029185;28;20033;-66
2021/01/23 07:22:17;;;;;;;63.03;51.97;;;;;;;15.79;61.78;101816.13;5044209;28;20124;-66
2021/01/23 07:24:42;;;;;;;38.30;31.92;;;;;;;15.88;61.71;101822.44;5028314;28;20375;-67
2021/01/23 07:27:07;;;;;;;38.33;26.88;;;;;;;15.93;61.65;101818.09;5027591;28;20067;-66
2021/01/23 07:29:33;;;;;;;26.30;14.10;;;;;;;16.02;61.62;101824.34;5029576;28;20044;-67
2021/01/23 07:31:58;;;;;;;7.43;5.28;;;;;;;16.12;61.56;101823.59;5029563;28;20061;-67
2021/01/23 07:34:24;;;;;;;8.48;3.55;;;;;;;16.27;61.22;101832.63;5028887;28;20133;-67
2021/01/23 07:36:49;;;;;;;5.97;2.60;;;;;;;16.50;60.97;101832.81;5028550;28;20033;-66
2021/01/23 07:39:15;;;;;;;3.63;2.50;;;;;;;16.89;60.38;101831.38;5028936;28;20029;-67
2021/01/23 07:41:40;;;;;;;7.05;3.97;;;;;;;17.36;60.11;101831.66;5021450;28;20581;-66
2021/01/23 07:44:06;;;;;;;105.72;61.80;;;;;;;17.63;59.67;101820.25;5021083;28;20046;-67
2021/01/23 07:46:31;;;;;;;212.90;142.50;;;;;;;17.80;58.89;101823.84;5009557;28;20061;-66
2021/01/23 07:48:57;;;;;;;176.73;119.93;;;;;;;18.07;58.76;101817.69;5022915;28;20046;-66
2021/01/23 07:51:22;;;;;;;150.00;103.00;;;;;;;18.38;58.06;101815.97;5041075;28;20037;-64
2021/01/23 07:53:47;;;;;;;95.32;65.38;;;;;;;18.49;58.07;101819.53;5018224;28;20030;-65
2021/01/23 07:56:13;;;;;;;31.95;23.15;;;;;;;18.51;57.91;101823.09;5032072;28;20029;-65
2021/01/23 07:58:38;;;;;;;14.48;8.10;;;;;;;18.45;57.64;101817.72;5026822;28;20056;-64
2021/01/23 08:01:04;;;;;;;4.30;1.30;;;;;;;18.39;57.45;101825.75;5030019;28;20042;-65
2021/01/23 08:03:29;;;;;;;2.33;1.30;;;;;;;18.40;57.33;101820.41;5027843;28;20056;-71
2021/01/23 08:05:54;;;;;;;3.38;0.98;;;;;;;18.40;57.08;101823.06;5027255;28;20132;-65
2021/01/23 08:08:20;;;;;;;5.45;1.80;;;;;;;18.41;57.23;101824.88;5023195;28;20064;-66
2021/01/23 08:10:45;;;;;;;5.60;1.33;;;;;;;18.44;56.95;101826.66;5030863;28;20076;-67
2021/01/23 08:13:11;;;;;;;2.08;0.80;;;;;;;18.51;56.61;101840.00;5029663;28;20041;-66
2021/01/23 08:15:36;;;;;;;5.38;1.55;;;;;;;18.56;57.14;101830.25;5031125;28;20042;-66
2021/01/23 08:18:01;;;;;;;4.70;1.30;;;;;;;18.57;56.51;101821.34;5024941;28;20586;-65
2021/01/23 08:20:27;;;;;;;6.93;1.40;;;;;;;18.56;56.45;101829.38;5022681;28;20054;-65
2021/01/23 08:22:52;;;;;;;3.88;1.35;;;;;;;18.55;56.53;101830.22;5021414;28;20109;-65
2021/01/23 08:25:17;;;;;;;2.58;1.70;;;;;;;18.50;56.66;101834.69;5023198;28;20042;-65
2021/01/23 08:27:43;;;;;;;3.33;2.28;;;;;;;18.44;56.45;101834.69;5025470;28;20502;-66
2021/01/23 08:30:08;;;;;;;2.95;1.48;;;;;;;18.44;56.53;101834.69;5023127;28;20125;-65
2021/01/23 08:32:33;;;;;;;2.72;1.60;;;;;;;18.41;56.25;101830.22;5028348;28;20049;-63
2021/01/23 08:34:59;;;;;;;5.00;2.58;;;;;;;18.43;55.81;101833.78;5027071;28;20038;-65
2021/01/23 08:37:24;;;;;;;2.70;1.20;;;;;;;18.46;55.91;101824.84;5021801;28;20045;-65
2021/01/23 08:39:50;;;;;;;6.43;1.55;;;;;;;18.38;56.17;101832.00;5037871;28;20044;-65
2021/01/23 08:42:15;;;;;;;7.90;3.30;;;;;;;18.20;56.18;101831.06;5022365;28;20095;-65
2021/01/23 08:44:41;;;;;;;13.52;9.25;;;;;;;17.97;56.65;101827.50;5031224;28;20041;-62
2021/01/23 08:47:06;;;;;;;10.35;6.63;;;;;;;17.77;56.62;101827.44;5024621;28;20398;-65
2021/01/23 08:49:31;;;;;;;5.03;2.25;;;;;;;17.62;56.91;101830.03;5020453;28;20433;-64
2021/01/23 08:51:57;;;;;;;3.92;1.23;;;;;;;17.52;57.19;101823.72;5030753;28;20068;-65
2021/01/23 08:54:22;;;;;;;0.85;0.70;;;;;;;17.46;57.53;101822.81;5034485;28;20406;-65
2021/01/23 08:56:48;;;;;;;1.55;1.00;;;;;;;17.42;57.45;101819.25;5030997;28;20116;-64
2021/01/23 08:59:13;;;;;;;1.67;0.98;;;;;;;17.46;57.38;101817.47;5030488;28;20331;-64
2021/01/23 09:01:38;;;;;;;12.45;8.88;;;;;;;17.46;57.12;101818.34;5031654;28;20050;-64
2021/01/23 09:04:04;;;;;;;17.90;12.02;;;;;;;17.37;57.46;101822.78;5046950;28;20103;-64
2021/01/23 09:06:29;;;;;;;7.75;5.03;;;;;;;17.19;58.00;101820.91;5031196;28;20500;-65
2021/01/23 09:08:54;;;;;;;8.15;6.65;;;;;;;17.11;58.45;101823.53;5031059;28;20037;-65
2021/01/23 09:11:21;;;;;;;14.43;7.35;;;;;;;17.10;57.88;101826.19;5030890;28;20045;-65
2021/01/23 09:13:46;;;;;;;10.18;7.55;;;;;;;17.16;58.39;101811.97;5031496;28;20439;-64
2021/01/23 09:16:11;;;;;;;5.70;3.88;;;;;;;17.17;58.05;101804.00;5030926;28;20121;-64
2021/01/23 09:18:37;;;;;;;7.95;4.53;;;;;;;17.21;57.92;101811.13;5027626;28;20038;-65
2021/01/23 09:21:02;;;;;;;20.85;13.10;;;;;;;17.36;58.00;101800.53;5013795;28;20530;-64
2021/01/23 09:23:27;;;;;;;22.63;15.27;;;;;;;17.47;58.13;101788.09;5011304;28;20034;-64
2021/01/23 09:25:53;;;;;;;21.20;12.38;;;;;;;17.50;57.79;101772.13;5020097;28;20510;-65
2021/01/23 09:28:19;;;;;;;20.17;12.55;;;;;;;17.57;57.97;101769.47;5028988;28;20041;-65
2021/01/23 09:30:44;;;;;;;13.48;9.85;;;;;;;17.61;58.47;101776.63;5030420;28;20040;-65
2021/01/23 09:33:10;;;;;;;7.18;5.25;;;;;;;17.62;57.77;101775.72;5030703;28;20033;-65
2021/01/23 09:35:35;;;;;;;8.10;3.38;;;;;;;17.61;58.40;101776.63;5029743;28;20060;-65
2021/01/23 09:38:00;;;;;;;26.40;18.83;;;;;;;17.57;57.84;101774.78;5029595;28;20037;-65
2021/01/23 09:40:26;;;;;;;27.40;20.42;;;;;;;17.49;58.12;101770.31;5029339;28;20046;-65
2021/01/23 09:42:51;;;;;;;15.52;12.60;;;;;;;17.39;58.68;101781.84;5029314;28;20129;-61
2021/01/23 09:45:16;;;;;;;22.20;4.80;;;;;;;17.25;58.26;101777.34;5030388;28;20103;-64
2021/01/23 09:47:42;;;;;;;9.65;3.40;;;;;;;17.08;58.63;101778.16;5039950;28;20037;-65
2021/01/23 09:50:08;;;;;;;6.15;3.13;;;;;;;16.89;58.99;101772.69;5043994;28;20080;-64
2021/01/23 09:52:33;;;;;;;13.07;5.57;;;;;;;16.73;59.18;101782.41;5030410;28;20052;-64
2021/01/23 09:54:58;;;;;;;43.95;28.35;;;;;;;16.59;59.40;101766.25;5022259;28;20034;-64
2021/01/23 09:57:24;;;;;;;27.98;19.63;;;;;;;16.48;59.82;101759.03;5024542;28;20044;-65
2021/01/23 09:59:49;;;;;;;28.38;22.60;;;;;;;16.49;60.45;101753.72;5042140;28;20045;-64
2021/01/23 10:02:14;;;;;;;10.75;6.40;;;;;;;16.57;60.30;101749.34;5027125;28;20041;-65
2021/01/23 10:04:40;;;;;;;7.13;4.30;;;;;;;16.62;60.00;101755.63;5027304;28;20461;-64
2021/01/23 10:07:05;;;;;;;9.95;3.97;;;;;;;16.76;59.96;101760.16;5025904;28;20056;-63
2021/01/23 10:09:30;;;;;;;8.90;2.90;;;;;;;16.93;59.84;101750.50;5017046;28;20045;-63
2021/01/23 10:11:57;;;;;;;6.90;4.50;;;;;;;17.12;60.05;101749.72;5027678;28;20099;-64
2021/01/23 10:14:22;;;;;;;11.77;5.10;;;;;;;17.29;59.85;101740.00;5029372;28;20030;-64
2021/01/23 10:16:48;;;;;;;8.02;4.85;;;;;;;17.49;60.15;101740.06;5028413;28;20034;-64
2021/01/23 10:19:13;;;;;;;8.13;4.32;;;;;;;17.77;59.50;101738.38;5027609;28;20109;-64
2021/01/23 10:21:38;;;;;;;10.20;5.30;;;;;;;18.04;59.10;101726.84;5029979;28;20120;-64
2021/01/23 10:24:04;;;;;;;17.65;5.80;;;;;;;18.21;58.57;101720.59;5029090;28;20052;-65
2021/01/23 10:26:29;;;;;;;11.52;6.45;;;;;;;18.38;58.54;101714.38;5028797;28;20045;-64
2021/01/23 10:28:56;;;;;;;14.30;8.80;;;;;;;18.46;58.81;101704.53;5028000;28;20056;-64
2021/01/23 10:31:22;;;;;;;22.10;13.35;;;;;;;18.51;58.13;101710.78;5021661;28;20053;-64
2021/01/23 10:33:47;;;;;;;27.85;20.10;;;;;;;18.38;58.54;101727.72;5029291;28;20037;-64
2021/01/23 10:36:12;;;;;;;42.10;26.60;;;;;;;18.10;58.80;101726.84;5028919;28;20380;-61
2021/01/23 10:38:38;;;;;;;31.45;22.45;;;;;;;17.85;59.18;101721.47;5027743;28;20038;-63
2021/01/23 10:41:03;;;;;;;11.95;8.80;;;;;;;17.78;59.46;101721.47;5028853;28;20037;-62
2021/01/23 10:43:29;;;;;;;12.43;9.05;;;;;;;18.08;58.73;101713.47;5028465;28;20076;-61
2021/01/23 10:45:54;;;;;;;13.43;8.90;;;;;;;18.60;59.01;101706.31;5025588;28;20044;-62
2021/01/23 10:48:19;;;;;;;14.05;10.43;;;;;;;19.15;58.46;101705.25;5022907;28;20029;-62
2021/01/23 10:50:45;;;;;;;26.40;18.58;;;;;;;19.31;58.01;101698.91;5018633;28;20046;-62
2021/01/23 10:53:10;;;;;;;31.98;22.83;;;;;;;19.24;58.08;101698.06;5029280;28;20037;-62
2021/01/23 10:55:35;;;;;;;39.70;28.48;;;;;;;18.99;58.43;101696.38;5029996;28;20426;-62
2021/01/23 10:58:01;;;;;;;41.47;31.42;;;;;;;18.73;58.77;101696.47;5028626;28;20033;-62
2021/01/23 11:00:27;;;;;;;34.38;27.15;;;;;;;18.40;58.68;101689.38;5029528;28;20402;-62
2021/01/23 11:02:52;;;;;;;23.75;17.55;;;;;;;18.15;59.20;101692.97;5015667;28;20046;-62
2021/01/23 11:05:17;;;;;;;11.90;8.27;;;;;;;17.99;59.71;101688.50;5009905;28;20034;-62
2021/01/23 11:07:43;;;;;;;8.23;4.43;;;;;;;17.86;59.64;101674.25;5010290;28;20136;-65
2021/01/23 11:10:08;;;;;;;9.32;4.82;;;;;;;17.82;59.92;101678.72;5009732;28;20041;-65